sensor_id;sensor_type;location;lat;lon;timestamp;temperature;humidity
13186;DHT22;6658;53.080;7.428;2022-12-18T00:01:32;-3.20;99.90
13186;DHT22;6658;53.080;7.428;2022-12-18T00:03:59;-3.20;99.90
13186;DHT22;6658;53.080;7.428;2022-12-18T00:06:27;-3.30;99.90
13186;DHT22;6658;53.080;7.428;2022-12-18T00:08:54;-3.40;99.90
13186;DHT22;6658;53.080;7.428;2022-12-18T00:11:22;-3.40;99.90
13186;DHT22;6658;53.080;7.428;2022-12-18T00:13:48;-3.50;99.90
13186;DHT22;6658;53.080;7.428;2022-12-18T00:16:16;-3.60;99.90
13186;DHT22;6658;53.080;7.428;2022-12-18T00:18:46;-3.60;99.90
13186;DHT22;6658;53.080;7.428;2022-12-18T00:21:12;-3.70;99.90
13186;DHT22;6658;53.080;7.428;2022-12-18T00:23:40;-3.70;99.90
13186;DHT22;6658;53.080;7.428;2022-12-18T00:26:15;-3.80;99.90
13186;DHT22;6658;53.080;7.428;2022-12-18T00:28:42;-3.80;99.90
13186;DHT22;6658;53.080;7.428;2022-12-18T00:31:10;-3.80;99.90
13186;DHT22;6658;53.080;7.428;2022-12-18T00:33:36;-3.90;99.90
13186;DHT22;6658;53.080;7.428;2022-12-18T00:36:08;-3.90;99.90
13186;DHT22;6658;53.080;7.428;2022-12-18T00:38:34;-4.00;99.90
13186;DHT22;6658;53.080;7.428;2022-12-18T00:41:00;-4.00;99.90
13186;DHT22;6658;53.080;7.428;2022-12-18T00:43:26;-4.10;99.90
13186;DHT22;6658;53.080;7.428;2022-12-18T00:45:52;-4.20;99.90
13186;DHT22;6658;53.080;7.428;2022-12-18T00:48:18;-4.20;99.90
13186;DHT22;6658;53.080;7.428;2022-12-18T00:50:44;-4.20;99.90
13186;DHT22;6658;53.080;7.428;2022-12-18T00:53:10;-4.20;99.90
13186;DHT22;6658;53.080;7.428;2022-12-18T00:55:38;-4.30;99.90
13186;DHT22;6658;53.080;7.428;2022-12-18T00:58:04;-4.30;99.90
13186;DHT22;6658;53.080;7.428;2022-12-18T01:00:30;-4.30;99.90
13186;DHT22;6658;53.080;7.428;2022-12-18T01:02:56;-4.30;99.90
13186;DHT22;6658;53.080;7.428;2022-12-18T01:05:21;-4.30;99.90
13186;DHT22;6658;53.080;7.428;2022-12-18T01:07:47;-4.30;99.90
13186;DHT22;6658;53.080;7.428;2022-12-18T01:10:13;-4.40;99.90
13186;DHT22;6658;53.080;7.428;2022-12-18T01:12:39;-4.40;99.90
13186;DHT22;6658;53.080;7.428;2022-12-18T01:15:06;-4.40;99.90
13186;DHT22;6658;53.080;7.428;2022-12-18T01:17:33;-4.50;99.90
13186;DHT22;6658;53.080;7.428;2022-12-18T01:19:58;-4.50;99.90
13186;DHT22;6658;53.080;7.428;2022-12-18T01:22:24;-4.60;99.90
13186;DHT22;6658;53.080;7.428;2022-12-18T01:24:50;-4.60;99.90
13186;DHT22;6658;53.080;7.428;2022-12-18T01:27:16;-4.70;99.90
13186;DHT22;6658;53.080;7.428;2022-12-18T01:29:41;-4.70;99.90
13186;DHT22;6658;53.080;7.428;2022-12-18T01:32:08;-4.70;99.90
13186;DHT22;6658;53.080;7.428;2022-12-18T01:34:36;-4.70;99.90
13186;DHT22;6658;53.080;7.428;2022-12-18T01:37:04;-4.70;99.90
13186;DHT22;6658;53.080;7.428;2022-12-18T01:39:30;-4.70;99.90
13186;DHT22;6658;53.080;7.428;2022-12-18T01:41:57;-4.80;99.90
13186;DHT22;6658;53.080;7.428;2022-12-18T01:44:56;-4.80;99.90
13186;DHT22;6658;53.080;7.428;2022-12-18T01:49:51;-4.80;99.90
13186;DHT22;6658;53.080;7.428;2022-12-18T01:52:18;-4.80;99.90
13186;DHT22;6658;53.080;7.428;2022-12-18T01:54:46;-4.80;99.90
13186;DHT22;6658;53.080;7.428;2022-12-18T01:57:11;-4.90;99.90
13186;DHT22;6658;53.080;7.428;2022-12-18T01:59:39;-4.90;99.90
13186;DHT22;6658;53.080;7.428;2022-12-18T02:02:07;-4.90;99.90
13186;DHT22;6658;53.080;7.428;2022-12-18T02:04:33;-4.90;99.90
13186;DHT22;6658;53.080;7.428;2022-12-18T02:07:23;-4.90;99.90
13186;DHT22;6658;53.080;7.428;2022-12-18T02:09:59;-5.00;99.90
13186;DHT22;6658;53.080;7.428;2022-12-18T02:12:42;-5.10;99.90
13186;DHT22;6658;53.080;7.428;2022-12-18T02:15:19;-5.10;99.90
13186;DHT22;6658;53.080;7.428;2022-12-18T02:17:54;-5.10;99.90
13186;DHT22;6658;53.080;7.428;2022-12-18T02:28:44;-5.20;99.90
13186;DHT22;6658;53.080;7.428;2022-12-18T02:31:16;-5.20;99.90
13186;DHT22;6658;53.080;7.428;2022-12-18T02:33:44;-5.20;99.90
13186;DHT22;6658;53.080;7.428;2022-12-18T02:36:13;-5.20;99.90
13186;DHT22;6658;53.080;7.428;2022-12-18T02:38:40;-5.10;99.90
13186;DHT22;6658;53.080;7.428;2022-12-18T02:41:07;-5.10;99.90
13186;DHT22;6658;53.080;7.428;2022-12-18T02:43:33;-5.10;99.90
13186;DHT22;6658;53.080;7.428;2022-12-18T02:46:00;-5.10;99.90
13186;DHT22;6658;53.080;7.428;2022-12-18T02:48:33;-5.20;99.90
13186;DHT22;6658;53.080;7.428;2022-12-18T02:51:11;-5.20;99.90
13186;DHT22;6658;53.080;7.428;2022-12-18T02:53:56;-5.30;99.90
13186;DHT22;6658;53.080;7.428;2022-12-18T02:56:35;-5.30;99.90
13186;DHT22;6658;53.080;7.428;2022-12-18T02:59:17;-5.40;99.90
13186;DHT22;6658;53.080;7.428;2022-12-18T03:01:58;-5.50;99.90
13186;DHT22;6658;53.080;7.428;2022-12-18T03:04:30;-5.50;99.90
13186;DHT22;6658;53.080;7.428;2022-12-18T03:07:02;-5.60;99.90
13186;DHT22;6658;53.080;7.428;2022-12-18T03:09:32;-5.60;99.90
13186;DHT22;6658;53.080;7.428;2022-12-18T03:12:24;-5.70;99.90
13186;DHT22;6658;53.080;7.428;2022-12-18T03:17:37;-5.90;99.90
13186;DHT22;6658;53.080;7.428;2022-12-18T03:20:12;-5.90;99.90
13186;DHT22;6658;53.080;7.428;2022-12-18T03:22:41;-5.90;99.90
13186;DHT22;6658;53.080;7.428;2022-12-18T03:25:11;-5.80;99.90
13186;DHT22;6658;53.080;7.428;2022-12-18T03:27:44;-5.70;99.90
13186;DHT22;6658;53.080;7.428;2022-12-18T03:30:13;-5.60;99.90
13186;DHT22;6658;53.080;7.428;2022-12-18T03:33:12;-5.60;99.90
13186;DHT22;6658;53.080;7.428;2022-12-18T03:35:41;-5.60;99.90
13186;DHT22;6658;53.080;7.428;2022-12-18T03:38:08;-5.60;99.90
13186;DHT22;6658;53.080;7.428;2022-12-18T03:43:36;-5.70;99.90
13186;DHT22;6658;53.080;7.428;2022-12-18T03:46:15;-5.80;99.90
13186;DHT22;6658;53.080;7.428;2022-12-18T03:48:50;-5.80;99.90
13186;DHT22;6658;53.080;7.428;2022-12-18T03:51:28;-5.90;99.90
13186;DHT22;6658;53.080;7.428;2022-12-18T03:54:02;-5.90;99.90
13186;DHT22;6658;53.080;7.428;2022-12-18T03:56:32;-6.00;99.90
13186;DHT22;6658;53.080;7.428;2022-12-18T03:59:00;-6.00;99.90
13186;DHT22;6658;53.080;7.428;2022-12-18T04:01:33;-6.00;99.90
13186;DHT22;6658;53.080;7.428;2022-12-18T04:04:00;-6.00;99.90
13186;DHT22;6658;53.080;7.428;2022-12-18T04:06:28;-5.90;99.90
13186;DHT22;6658;53.080;7.428;2022-12-18T04:08:54;-5.90;99.90
13186;DHT22;6658;53.080;7.428;2022-12-18T04:11:20;-5.90;99.90
13186;DHT22;6658;53.080;7.428;2022-12-18T04:13:46;-5.90;99.90
13186;DHT22;6658;53.080;7.428;2022-12-18T04:16:11;-6.00;99.90
13186;DHT22;6658;53.080;7.428;2022-12-18T04:18:37;-6.10;99.90
13186;DHT22;6658;53.080;7.428;2022-12-18T04:21:03;-6.20;99.90
13186;DHT22;6658;53.080;7.428;2022-12-18T04:23:28;-6.30;99.90
13186;DHT22;6658;53.080;7.428;2022-12-18T04:25:57;-6.30;99.90
13186;DHT22;6658;53.080;7.428;2022-12-18T04:28:23;-6.40;99.90
13186;DHT22;6658;53.080;7.428;2022-12-18T04:30:49;-6.40;99.90
13186;DHT22;6658;53.080;7.428;2022-12-18T04:33:15;-6.40;99.90
13186;DHT22;6658;53.080;7.428;2022-12-18T04:35:41;-6.40;99.90
13186;DHT22;6658;53.080;7.428;2022-12-18T04:38:07;-6.40;99.90
13186;DHT22;6658;53.080;7.428;2022-12-18T04:40:34;-6.50;99.90
13186;DHT22;6658;53.080;7.428;2022-12-18T04:42:59;-6.50;99.90
13186;DHT22;6658;53.080;7.428;2022-12-18T04:45:25;-6.40;99.90
13186;DHT22;6658;53.080;7.428;2022-12-18T04:47:51;-6.20;99.90
13186;DHT22;6658;53.080;7.428;2022-12-18T04:50:16;-6.30;99.90
13186;DHT22;6658;53.080;7.428;2022-12-18T04:52:42;-6.20;99.90
13186;DHT22;6658;53.080;7.428;2022-12-18T04:55:08;-6.20;99.90
13186;DHT22;6658;53.080;7.428;2022-12-18T04:57:34;-6.20;99.90
13186;DHT22;6658;53.080;7.428;2022-12-18T04:59:59;-6.10;99.90
13186;DHT22;6658;53.080;7.428;2022-12-18T05:02:25;-6.20;99.90
13186;DHT22;6658;53.080;7.428;2022-12-18T05:04:50;-6.30;99.90
13186;DHT22;6658;53.080;7.428;2022-12-18T05:07:16;-6.30;99.90
13186;DHT22;6658;53.080;7.428;2022-12-18T05:09:42;-6.40;99.90
13186;DHT22;6658;53.080;7.428;2022-12-18T05:12:07;-6.40;99.90
13186;DHT22;6658;53.080;7.428;2022-12-18T05:14:33;-6.30;99.90
13186;DHT22;6658;53.080;7.428;2022-12-18T05:17:02;-6.30;99.90
13186;DHT22;6658;53.080;7.428;2022-12-18T05:19:28;-6.30;99.90
13186;DHT22;6658;53.080;7.428;2022-12-18T05:21:54;-6.30;99.90
13186;DHT22;6658;53.080;7.428;2022-12-18T05:24:19;-6.40;99.90
13186;DHT22;6658;53.080;7.428;2022-12-18T05:26:45;-6.40;99.90
13186;DHT22;6658;53.080;7.428;2022-12-18T05:29:11;-6.50;99.90
13186;DHT22;6658;53.080;7.428;2022-12-18T05:31:38;-6.40;99.90
13186;DHT22;6658;53.080;7.428;2022-12-18T05:34:04;-6.40;99.90
13186;DHT22;6658;53.080;7.428;2022-12-18T05:36:30;-6.40;99.90
13186;DHT22;6658;53.080;7.428;2022-12-18T05:38:55;-6.40;99.90
13186;DHT22;6658;53.080;7.428;2022-12-18T05:41:21;-6.40;99.90
13186;DHT22;6658;53.080;7.428;2022-12-18T05:43:47;-6.40;99.90
13186;DHT22;6658;53.080;7.428;2022-12-18T05:46:15;-6.40;99.90
13186;DHT22;6658;53.080;7.428;2022-12-18T05:48:42;-6.40;99.90
13186;DHT22;6658;53.080;7.428;2022-12-18T05:51:10;-6.40;99.90
13186;DHT22;6658;53.080;7.428;2022-12-18T05:53:36;-6.30;99.90
13186;DHT22;6658;53.080;7.428;2022-12-18T05:56:04;-6.30;99.90
13186;DHT22;6658;53.080;7.428;2022-12-18T05:58:31;-6.30;99.90
13186;DHT22;6658;53.080;7.428;2022-12-18T06:00:57;-6.30;99.90
13186;DHT22;6658;53.080;7.428;2022-12-18T06:03:23;-6.30;99.90
13186;DHT22;6658;53.080;7.428;2022-12-18T06:05:48;-6.30;99.90
13186;DHT22;6658;53.080;7.428;2022-12-18T06:08:14;-6.40;99.90
13186;DHT22;6658;53.080;7.428;2022-12-18T06:10:41;-6.50;99.90
13186;DHT22;6658;53.080;7.428;2022-12-18T06:13:07;-6.50;99.90
13186;DHT22;6658;53.080;7.428;2022-12-18T06:15:33;-6.60;99.90
13186;DHT22;6658;53.080;7.428;2022-12-18T06:18:01;-6.60;99.90
13186;DHT22;6658;53.080;7.428;2022-12-18T06:20:26;-6.60;99.90
13186;DHT22;6658;53.080;7.428;2022-12-18T06:22:52;-6.60;99.90
13186;DHT22;6658;53.080;7.428;2022-12-18T06:25:18;-6.60;99.90
13186;DHT22;6658;53.080;7.428;2022-12-18T06:27:44;-6.70;99.90
13186;DHT22;6658;53.080;7.428;2022-12-18T06:30:10;-6.70;99.90
13186;DHT22;6658;53.080;7.428;2022-12-18T06:32:36;-6.70;99.90
13186;DHT22;6658;53.080;7.428;2022-12-18T06:35:01;-6.70;99.90
13186;DHT22;6658;53.080;7.428;2022-12-18T06:37:27;-6.80;99.90
13186;DHT22;6658;53.080;7.428;2022-12-18T06:39:53;-6.80;99.90
13186;DHT22;6658;53.080;7.428;2022-12-18T06:42:23;-6.90;99.90
13186;DHT22;6658;53.080;7.428;2022-12-18T06:44:49;-7.00;99.90
13186;DHT22;6658;53.080;7.428;2022-12-18T06:47:14;-7.00;99.90
13186;DHT22;6658;53.080;7.428;2022-12-18T06:49:40;-7.10;99.90
13186;DHT22;6658;53.080;7.428;2022-12-18T06:52:06;-7.00;99.90
13186;DHT22;6658;53.080;7.428;2022-12-18T06:54:31;-7.00;99.90
13186;DHT22;6658;53.080;7.428;2022-12-18T06:56:57;-7.00;99.90
13186;DHT22;6658;53.080;7.428;2022-12-18T06:59:22;-6.90;99.90
13186;DHT22;6658;53.080;7.428;2022-12-18T07:01:48;-6.90;99.90
13186;DHT22;6658;53.080;7.428;2022-12-18T07:04:14;-7.00;99.90
13186;DHT22;6658;53.080;7.428;2022-12-18T07:06:39;-6.90;99.90
13186;DHT22;6658;53.080;7.428;2022-12-18T07:09:05;-6.90;99.90
13186;DHT22;6658;53.080;7.428;2022-12-18T07:11:32;-6.80;99.90
13186;DHT22;6658;53.080;7.428;2022-12-18T07:14:01;-6.70;99.90
13186;DHT22;6658;53.080;7.428;2022-12-18T07:16:27;-6.70;99.90
13186;DHT22;6658;53.080;7.428;2022-12-18T07:18:54;-6.70;99.90
13186;DHT22;6658;53.080;7.428;2022-12-18T07:21:22;-6.70;99.90
13186;DHT22;6658;53.080;7.428;2022-12-18T07:23:47;-6.70;99.90
13186;DHT22;6658;53.080;7.428;2022-12-18T07:26:15;-6.70;99.90
13186;DHT22;6658;53.080;7.428;2022-12-18T07:28:42;-6.70;99.90
13186;DHT22;6658;53.080;7.428;2022-12-18T07:31:10;-6.60;99.90
13186;DHT22;6658;53.080;7.428;2022-12-18T07:33:36;-6.60;99.90
13186;DHT22;6658;53.080;7.428;2022-12-18T07:36:04;-6.60;99.90
13186;DHT22;6658;53.080;7.428;2022-12-18T07:38:30;-6.50;99.90
13186;DHT22;6658;53.080;7.428;2022-12-18T07:41:12;-6.50;99.90
13186;DHT22;6658;53.080;7.428;2022-12-18T07:43:39;-6.50;99.90
13186;DHT22;6658;53.080;7.428;2022-12-18T07:46:06;-6.40;99.90
13186;DHT22;6658;53.080;7.428;2022-12-18T07:48:32;-6.40;99.90
13186;DHT22;6658;53.080;7.428;2022-12-18T07:51:02;-6.30;99.90
13186;DHT22;6658;53.080;7.428;2022-12-18T07:53:28;-6.20;99.90
13186;DHT22;6658;53.080;7.428;2022-12-18T07:56:05;-6.10;99.90
13186;DHT22;6658;53.080;7.428;2022-12-18T07:58:31;-6.10;99.90
13186;DHT22;6658;53.080;7.428;2022-12-18T08:01:08;-6.00;99.90
13186;DHT22;6658;53.080;7.428;2022-12-18T08:03:34;-5.90;99.90
13186;DHT22;6658;53.080;7.428;2022-12-18T08:06:01;-5.80;99.90
13186;DHT22;6658;53.080;7.428;2022-12-18T08:08:27;-5.80;99.90
13186;DHT22;6658;53.080;7.428;2022-12-18T08:10:53;-5.80;99.90
13186;DHT22;6658;53.080;7.428;2022-12-18T08:13:18;-5.70;99.90
13186;DHT22;6658;53.080;7.428;2022-12-18T08:15:44;-5.60;99.90
13186;DHT22;6658;53.080;7.428;2022-12-18T08:18:10;-5.60;99.90
13186;DHT22;6658;53.080;7.428;2022-12-18T08:20:35;-5.50;99.90
13186;DHT22;6658;53.080;7.428;2022-12-18T08:23:01;-5.40;99.90
13186;DHT22;6658;53.080;7.428;2022-12-18T08:25:26;-5.30;99.90
13186;DHT22;6658;53.080;7.428;2022-12-18T08:27:52;-5.30;99.90
13186;DHT22;6658;53.080;7.428;2022-12-18T08:30:18;-5.20;99.90
13186;DHT22;6658;53.080;7.428;2022-12-18T08:32:43;-5.10;99.90
13186;DHT22;6658;53.080;7.428;2022-12-18T08:35:09;-5.10;99.90
13186;DHT22;6658;53.080;7.428;2022-12-18T08:37:37;-5.00;99.90
13186;DHT22;6658;53.080;7.428;2022-12-18T08:40:03;-5.00;99.90
13186;DHT22;6658;53.080;7.428;2022-12-18T08:42:29;-4.90;99.90
13186;DHT22;6658;53.080;7.428;2022-12-18T08:45:13;-4.90;99.90
13186;DHT22;6658;53.080;7.428;2022-12-18T08:47:39;-4.80;99.90
13186;DHT22;6658;53.080;7.428;2022-12-18T08:50:09;-4.80;99.90
13186;DHT22;6658;53.080;7.428;2022-12-18T08:52:34;-4.70;99.90
13186;DHT22;6658;53.080;7.428;2022-12-18T08:55:00;-4.70;99.90
13186;DHT22;6658;53.080;7.428;2022-12-18T08:57:26;-4.60;99.90
13186;DHT22;6658;53.080;7.428;2022-12-18T08:59:51;-4.50;99.90
13186;DHT22;6658;53.080;7.428;2022-12-18T09:02:17;-4.50;99.90
13186;DHT22;6658;53.080;7.428;2022-12-18T09:04:43;-4.40;99.90
13186;DHT22;6658;53.080;7.428;2022-12-18T09:07:08;-4.30;99.90
13186;DHT22;6658;53.080;7.428;2022-12-18T09:09:34;-4.20;99.90
13186;DHT22;6658;53.080;7.428;2022-12-18T09:12:00;-4.20;99.90
13186;DHT22;6658;53.080;7.428;2022-12-18T09:14:26;-4.10;99.90
13186;DHT22;6658;53.080;7.428;2022-12-18T09:16:52;-4.10;99.90
13186;DHT22;6658;53.080;7.428;2022-12-18T09:19:17;-3.90;99.90
13186;DHT22;6658;53.080;7.428;2022-12-18T09:21:43;-3.90;99.90
13186;DHT22;6658;53.080;7.428;2022-12-18T09:24:13;-3.90;99.90
13186;DHT22;6658;53.080;7.428;2022-12-18T09:26:38;-3.80;99.90
13186;DHT22;6658;53.080;7.428;2022-12-18T09:29:05;-3.80;99.90
13186;DHT22;6658;53.080;7.428;2022-12-18T09:31:32;-3.70;99.90
13186;DHT22;6658;53.080;7.428;2022-12-18T09:33:58;-3.70;99.90
13186;DHT22;6658;53.080;7.428;2022-12-18T09:36:24;-3.60;99.90
13186;DHT22;6658;53.080;7.428;2022-12-18T09:38:50;-3.60;99.90
13186;DHT22;6658;53.080;7.428;2022-12-18T09:44:23;-3.40;99.90
13186;DHT22;6658;53.080;7.428;2022-12-18T09:47:17;-3.30;99.90
13186;DHT22;6658;53.080;7.428;2022-12-18T09:49:46;-3.30;99.90
13186;DHT22;6658;53.080;7.428;2022-12-18T09:52:25;-3.20;99.90
13186;DHT22;6658;53.080;7.428;2022-12-18T09:54:57;-3.10;99.90
13186;DHT22;6658;53.080;7.428;2022-12-18T09:57:24;-3.00;99.90
13186;DHT22;6658;53.080;7.428;2022-12-18T10:00:03;-3.00;99.90
13186;DHT22;6658;53.080;7.428;2022-12-18T10:02:30;-2.90;99.90
13186;DHT22;6658;53.080;7.428;2022-12-18T10:07:59;-2.70;99.90
13186;DHT22;6658;53.080;7.428;2022-12-18T10:10:40;-2.60;99.90
13186;DHT22;6658;53.080;7.428;2022-12-18T10:13:09;-2.50;99.90
13186;DHT22;6658;53.080;7.428;2022-12-18T10:27:17;-2.30;99.90
13186;DHT22;6658;53.080;7.428;2022-12-18T10:29:43;-2.20;99.90
13186;DHT22;6658;53.080;7.428;2022-12-18T10:32:18;-2.20;99.90
13186;DHT22;6658;53.080;7.428;2022-12-18T10:34:48;-2.20;99.90
13186;DHT22;6658;53.080;7.428;2022-12-18T10:37:20;-2.10;99.90
13186;DHT22;6658;53.080;7.428;2022-12-18T10:40:09;-2.10;99.90
13186;DHT22;6658;53.080;7.428;2022-12-18T10:42:33;-2.10;99.90
13186;DHT22;6658;53.080;7.428;2022-12-18T10:45:10;-2.00;99.90
13186;DHT22;6658;53.080;7.428;2022-12-18T10:47:36;-1.90;99.90
13186;DHT22;6658;53.080;7.428;2022-12-18T10:50:28;-1.90;99.90
13186;DHT22;6658;53.080;7.428;2022-12-18T10:53:00;-1.90;99.90
13186;DHT22;6658;53.080;7.428;2022-12-18T10:55:34;-1.80;99.90
13186;DHT22;6658;53.080;7.428;2022-12-18T10:58:23;-1.70;99.90
13186;DHT22;6658;53.080;7.428;2022-12-18T11:01:14;-1.70;99.90
13186;DHT22;6658;53.080;7.428;2022-12-18T11:03:41;-1.70;99.90
13186;DHT22;6658;53.080;7.428;2022-12-18T11:06:10;-1.70;99.90
13186;DHT22;6658;53.080;7.428;2022-12-18T11:08:37;-1.70;99.90
13186;DHT22;6658;53.080;7.428;2022-12-18T11:11:06;-1.80;99.90
13186;DHT22;6658;53.080;7.428;2022-12-18T11:13:32;-1.80;99.90
13186;DHT22;6658;53.080;7.428;2022-12-18T11:15:59;-1.80;99.90
13186;DHT22;6658;53.080;7.428;2022-12-18T11:18:31;-1.80;99.90
13186;DHT22;6658;53.080;7.428;2022-12-18T11:21:09;-1.70;99.90
13186;DHT22;6658;53.080;7.428;2022-12-18T11:23:37;-1.70;99.90
13186;DHT22;6658;53.080;7.428;2022-12-18T11:26:09;-1.70;99.90
13186;DHT22;6658;53.080;7.428;2022-12-18T11:28:46;-1.60;99.90
13186;DHT22;6658;53.080;7.428;2022-12-18T11:31:17;-1.50;99.90
13186;DHT22;6658;53.080;7.428;2022-12-18T11:34:09;-1.60;99.90
13186;DHT22;6658;53.080;7.428;2022-12-18T11:36:38;-1.50;99.90
13186;DHT22;6658;53.080;7.428;2022-12-18T11:44:51;-1.50;99.90
13186;DHT22;6658;53.080;7.428;2022-12-18T11:50:17;-1.40;99.90
13186;DHT22;6658;53.080;7.428;2022-12-18T11:52:43;-1.30;99.90
13186;DHT22;6658;53.080;7.428;2022-12-18T11:55:14;-1.30;99.90
13186;DHT22;6658;53.080;7.428;2022-12-18T11:57:54;-1.30;99.90
13186;DHT22;6658;53.080;7.428;2022-12-18T12:00:22;-1.20;99.90
13186;DHT22;6658;53.080;7.428;2022-12-18T12:05:59;-1.20;99.90
13186;DHT22;6658;53.080;7.428;2022-12-18T12:17:11;-1.00;99.90
13186;DHT22;6658;53.080;7.428;2022-12-18T12:34:22;-1.00;99.90
13186;DHT22;6658;53.080;7.428;2022-12-18T12:39:53;-0.90;99.90
13186;DHT22;6658;53.080;7.428;2022-12-18T12:42:39;-0.90;99.90
13186;DHT22;6658;53.080;7.428;2022-12-18T12:48:02;-0.90;99.90
13186;DHT22;6658;53.080;7.428;2022-12-18T12:50:30;-0.90;99.90
13186;DHT22;6658;53.080;7.428;2022-12-18T12:52:59;-0.90;99.90
13186;DHT22;6658;53.080;7.428;2022-12-18T12:55:28;-0.90;99.90
13186;DHT22;6658;53.080;7.428;2022-12-18T13:01:08;-0.90;99.90
13186;DHT22;6658;53.080;7.428;2022-12-18T13:08:55;-0.90;99.90
13186;DHT22;6658;53.080;7.428;2022-12-18T13:11:40;-0.90;99.90
13186;DHT22;6658;53.080;7.428;2022-12-18T13:14:31;-0.90;99.90
13186;DHT22;6658;53.080;7.428;2022-12-18T13:19:42;-0.90;99.90
13186;DHT22;6658;53.080;7.428;2022-12-18T13:22:28;-0.90;99.90
13186;DHT22;6658;53.080;7.428;2022-12-18T13:24:55;-1.00;99.90
13186;DHT22;6658;53.080;7.428;2022-12-18T13:27:46;-1.00;99.90
13186;DHT22;6658;53.080;7.428;2022-12-18T13:41:01;-0.90;99.90
13186;DHT22;6658;53.080;7.428;2022-12-18T13:43:33;-0.90;99.90
13186;DHT22;6658;53.080;7.428;2022-12-18T13:49:23;-0.90;99.90
13186;DHT22;6658;53.080;7.428;2022-12-18T13:51:44;-0.90;99.90
13186;DHT22;6658;53.080;7.428;2022-12-18T13:56:48;-0.90;99.90
13186;DHT22;6658;53.080;7.428;2022-12-18T13:59:15;-0.90;99.90
13186;DHT22;6658;53.080;7.428;2022-12-18T14:01:50;-0.90;99.90
13186;DHT22;6658;53.080;7.428;2022-12-18T14:04:28;-0.90;99.90
13186;DHT22;6658;53.080;7.428;2022-12-18T14:07:05;-1.00;99.90
13186;DHT22;6658;53.080;7.428;2022-12-18T14:09:37;-1.00;99.90
13186;DHT22;6658;53.080;7.428;2022-12-18T14:12:05;-0.90;99.90
13186;DHT22;6658;53.080;7.428;2022-12-18T14:14:51;-1.00;99.90
13186;DHT22;6658;53.080;7.428;2022-12-18T14:17:18;-1.00;99.90
13186;DHT22;6658;53.080;7.428;2022-12-18T14:19:48;-1.00;99.90
13186;DHT22;6658;53.080;7.428;2022-12-18T14:22:18;-1.00;99.90
13186;DHT22;6658;53.080;7.428;2022-12-18T14:24:44;-1.00;99.90
13186;DHT22;6658;53.080;7.428;2022-12-18T14:27:24;-1.00;99.90
13186;DHT22;6658;53.080;7.428;2022-12-18T14:29:50;-1.10;99.90
13186;DHT22;6658;53.080;7.428;2022-12-18T14:32:18;-1.10;99.90
13186;DHT22;6658;53.080;7.428;2022-12-18T14:34:51;-1.10;99.90
13186;DHT22;6658;53.080;7.428;2022-12-18T14:37:25;-1.10;99.90
13186;DHT22;6658;53.080;7.428;2022-12-18T14:40:04;-1.10;99.90
13186;DHT22;6658;53.080;7.428;2022-12-18T14:42:30;-1.10;99.90
13186;DHT22;6658;53.080;7.428;2022-12-18T14:48:00;-1.10;99.90
13186;DHT22;6658;53.080;7.428;2022-12-18T14:50:26;-1.10;99.90
13186;DHT22;6658;53.080;7.428;2022-12-18T14:52:52;-1.20;99.90
13186;DHT22;6658;53.080;7.428;2022-12-18T14:55:19;-1.10;99.90
13186;DHT22;6658;53.080;7.428;2022-12-18T14:57:50;-1.20;99.90
13186;DHT22;6658;53.080;7.428;2022-12-18T15:00:19;-1.20;99.90
13186;DHT22;6658;53.080;7.428;2022-12-18T15:02:48;-1.20;99.90
13186;DHT22;6658;53.080;7.428;2022-12-18T15:05:29;-1.20;99.90
13186;DHT22;6658;53.080;7.428;2022-12-18T15:07:58;-1.20;99.90
13186;DHT22;6658;53.080;7.428;2022-12-18T15:10:27;-1.20;99.90
13186;DHT22;6658;53.080;7.428;2022-12-18T15:20:46;-1.20;99.90
13186;DHT22;6658;53.080;7.428;2022-12-18T15:23:26;-1.20;99.90
13186;DHT22;6658;53.080;7.428;2022-12-18T15:26:03;-1.20;99.90
13186;DHT22;6658;53.080;7.428;2022-12-18T15:33:37;-1.10;99.90
13186;DHT22;6658;53.080;7.428;2022-12-18T15:36:08;-1.10;99.90
13186;DHT22;6658;53.080;7.428;2022-12-18T15:38:34;-1.10;99.90
13186;DHT22;6658;53.080;7.428;2022-12-18T15:41:00;-1.10;99.90
13186;DHT22;6658;53.080;7.428;2022-12-18T15:43:30;-1.10;99.90
13186;DHT22;6658;53.080;7.428;2022-12-18T15:46:08;-1.00;99.90
13186;DHT22;6658;53.080;7.428;2022-12-18T15:48:38;-1.00;99.90
13186;DHT22;6658;53.080;7.428;2022-12-18T15:51:08;-1.00;99.90
13186;DHT22;6658;53.080;7.428;2022-12-18T15:53:37;-1.00;99.90
13186;DHT22;6658;53.080;7.428;2022-12-18T15:56:07;-1.00;99.90
13186;DHT22;6658;53.080;7.428;2022-12-18T15:58:53;-1.00;99.90
13186;DHT22;6658;53.080;7.428;2022-12-18T16:01:20;-1.00;99.90
13186;DHT22;6658;53.080;7.428;2022-12-18T16:03:46;-0.90;99.90
13186;DHT22;6658;53.080;7.428;2022-12-18T16:06:12;-0.90;99.90
13186;DHT22;6658;53.080;7.428;2022-12-18T16:08:37;-0.90;99.90
13186;DHT22;6658;53.080;7.428;2022-12-18T16:11:03;-0.80;99.90
13186;DHT22;6658;53.080;7.428;2022-12-18T16:13:29;-0.80;99.90
13186;DHT22;6658;53.080;7.428;2022-12-18T16:15:55;-0.80;99.90
13186;DHT22;6658;53.080;7.428;2022-12-18T16:18:21;-0.80;99.90
13186;DHT22;6658;53.080;7.428;2022-12-18T16:20:47;-0.80;99.90
13186;DHT22;6658;53.080;7.428;2022-12-18T16:23:12;-0.80;99.90
13186;DHT22;6658;53.080;7.428;2022-12-18T16:25:38;-0.80;99.90
13186;DHT22;6658;53.080;7.428;2022-12-18T16:28:04;-0.80;99.90
13186;DHT22;6658;53.080;7.428;2022-12-18T16:30:30;-0.70;99.90
13186;DHT22;6658;53.080;7.428;2022-12-18T16:32:57;-0.70;99.90
13186;DHT22;6658;53.080;7.428;2022-12-18T16:35:24;-0.70;99.90
13186;DHT22;6658;53.080;7.428;2022-12-18T16:37:50;-0.70;99.90
13186;DHT22;6658;53.080;7.428;2022-12-18T16:40:16;-0.70;99.90
13186;DHT22;6658;53.080;7.428;2022-12-18T16:42:43;-0.70;99.90
13186;DHT22;6658;53.080;7.428;2022-12-18T16:45:12;-0.60;99.90
13186;DHT22;6658;53.080;7.428;2022-12-18T16:47:38;-0.60;99.90
13186;DHT22;6658;53.080;7.428;2022-12-18T16:50:04;-0.60;99.90
13186;DHT22;6658;53.080;7.428;2022-12-18T16:52:30;-0.60;99.90
13186;DHT22;6658;53.080;7.428;2022-12-18T16:54:56;-0.60;99.90
13186;DHT22;6658;53.080;7.428;2022-12-18T16:57:22;-0.50;99.90
13186;DHT22;6658;53.080;7.428;2022-12-18T16:59:48;-0.50;99.90
13186;DHT22;6658;53.080;7.428;2022-12-18T17:02:20;-0.50;99.90
13186;DHT22;6658;53.080;7.428;2022-12-18T17:04:46;-0.50;99.90
13186;DHT22;6658;53.080;7.428;2022-12-18T17:07:12;-0.50;99.90
13186;DHT22;6658;53.080;7.428;2022-12-18T17:09:38;-0.50;99.90
13186;DHT22;6658;53.080;7.428;2022-12-18T17:12:03;-0.50;99.90
13186;DHT22;6658;53.080;7.428;2022-12-18T17:14:30;-0.50;99.90
13186;DHT22;6658;53.080;7.428;2022-12-18T17:16:56;-0.40;99.90
13186;DHT22;6658;53.080;7.428;2022-12-18T17:19:23;-0.40;99.90
13186;DHT22;6658;53.080;7.428;2022-12-18T17:21:50;-0.40;99.90
13186;DHT22;6658;53.080;7.428;2022-12-18T17:24:16;-0.30;99.90
13186;DHT22;6658;53.080;7.428;2022-12-18T17:26:42;-0.30;99.90
13186;DHT22;6658;53.080;7.428;2022-12-18T17:29:11;-0.30;99.90
13186;DHT22;6658;53.080;7.428;2022-12-18T17:31:38;-0.30;99.90
13186;DHT22;6658;53.080;7.428;2022-12-18T17:34:03;-0.30;99.90
13186;DHT22;6658;53.080;7.428;2022-12-18T17:36:29;-0.30;99.90
13186;DHT22;6658;53.080;7.428;2022-12-18T17:38:58;-0.20;99.90
13186;DHT22;6658;53.080;7.428;2022-12-18T17:41:25;-0.20;99.90
13186;DHT22;6658;53.080;7.428;2022-12-18T17:43:59;-0.20;99.90
13186;DHT22;6658;53.080;7.428;2022-12-18T17:46:27;-0.20;99.90
13186;DHT22;6658;53.080;7.428;2022-12-18T17:48:55;-0.20;99.90
13186;DHT22;6658;53.080;7.428;2022-12-18T17:51:22;-0.20;99.90
13186;DHT22;6658;53.080;7.428;2022-12-18T17:53:48;-0.20;99.90
13186;DHT22;6658;53.080;7.428;2022-12-18T17:56:15;-0.20;99.90